KFZG

Fitzgerald Municipal Airport

Fitzgerald, Georgia, USA
METAR KFZG 280055Z AUTO 07004KT 4SM RA BKN005 OVC014 23/23 A2985 RMK AO2 T02270227
Observed Flight Rules
May-28 @ 00:55 UTC (31 minutes ago) Instrument Flight Rules
Wind Visibility Clouds Conditions
70° at 4 knots 4 miles
  • Broken at 500' AGL
  • Overcast at 1,400' AGL
  • Rain
Temperatures Readings
Current 23°C / 73°F
Dewpoint 23°C / 73°F
Humidity 100%
Altimeter 29.85" Hg
Pressure 1011 hPa
Elevation 111
METAR KFZG 280055Z AUTO 07004KT 4SM RA BKN005 OVC014 23/23 A2985 RMK AO2 T02270227
Observed Flight Rules
May-28 @ 00:55 UTC
(31 minutes ago)
IFR
Wind Visibility
70° at 4 knots 4 miles
Clouds
  • Broken at 500' AGL
  • Overcast at 1,400' AGL
Conditions
  • Rain
Temperature Dewpoint
23°C / 73°F 23°C / 73°F
Humidity Altimeter Pressure
100% 29.85" Hg 1011 hPa